Aviation Digital Data Service (ADDS)

Output produced by METARs form (0517 UTC 24 January 2019)
found at http://www.aviationweather.gov/metar/data/
 
Forecast for: NTAA (TAHITI-FAAA POLY, WS)
Text: TAF NTAA 240500Z 2406/2512 VRB05KT 9999 FEW023 SCT050
Forecast period: 0600 to 1800 UTC 24 January 2019
Forecast type: FROM: standard forecast or significant change
Winds: variable direction winds at 6 MPH (5 knots; 2.6 m/s)
Visibility: 6 or more miles 10+ km)
Ceiling: at least 12,000 feet AGL
Clouds: few clouds at 2300 feet AGL
scattered clouds at 5000 feet AGL
Weather: no significant weather forecast for this period
Text: BECMG 2418/2420 06015KT
Forecast period: 1800 UTC 24 January 2019 to 1200 UTC 25 January 2019
Forecast type: BECOMING: Conditions expected to become as follows by 2000 UTC 24 January 2019
Winds: from the ENE (60 degrees) at 17 MPH (15 knots; 7.7 m/s)
Visibility: 6 or more miles 10+ km)
Ceiling: at least 12,000 feet AGL
Clouds: few clouds at 2300 feet AGL
scattered clouds at 5000 feet AGL
Weather: no significant weather forecast for this period